パース の空港の天気 - METARとTAF

パース空港 ( YPPH / PER ) - オーストラリア 西オーストラリア州パース
飛行場実況気象(Metar)
観測時間02/01 23:30 AWST (02/01 15:30 UTC)
風向・風速東 5m/s
視程10km以上
天気現象
なし
気温23℃
湿度41%
気圧1014hPa
METARYPPH 011530Z 10010KT 080V140 CAVOK 23/09 Q1014 RF00.0////./
過去の天気等 Google飛行場航空写真 Wunderground天気予報

過去48時間のMETAR

飛行場予報(TAF)
発表時間: 2/01 22:14 AWST (2/01 14:14 UTC)
予報対象時間: 1日23時 AWST ~ 3日2時 AWST
風向・風速南東 7m/s
視程10km以上
なし
2日0時 AWST から
風向・風速東 11m/s 瞬間風速 20m/s
視程10km以上
なし
2日11時 AWST から
風向・風速東 8m/s
視程10km以上
なし
2日22時 AWST から
風向・風速東 9m/s 瞬間風速 18m/s
視程10km以上
なし
TAF YPPH 011414Z 0115/0218 13014KT CAVOK
FM011600 09022G38KT CAVOK
FM020300 10016KT CAVOK
FM021400 10017G35KT CAVOK